Easingwold, United Kingdom
Current Conditions -  °F | °C
As of 1:50 PM on Wednesday 28 Jan 2015 (Local Time) from EGXU Reporting Station
Few Clouds Few Clouds  
Wind Chill: 31°   Ceiling: Unl
Heat Index: 41°   Visibility: 6mi
Dew Point: 30°   Wind: 22mph
Humidity: 65%   Direction: 280°W
Pressure: 29.32"   Gusts: NA
Location:  54.12°N, 1.19°W
Report Text: EGXU 281350Z 28019KT 9999 FEW014CB 05/M01 Q0993 BLU TEMPO 28020G35KT 3000 SHRASN BKN010 YLO1
Loading
Personal Weather Stations






























Interactive Weather Map New forecast layout! Learn more

10-Day Weather Forecast

Advertisements
Track Severe Weather on mobile